Página principal
METAR-TAF:

METAR-TAF

Aeroportos :

Curaçao, Antilhas Neerlandesas

Aeroporto Internacional Hato

latitude: 12-12N, longitude: 068-58W, altura: 9 m

Observação actual do tempo

O boletim foi feito há 26 minutos, às 22:00 UTC
Vento 8 kt de es-nordeste
Temperatura 28°C
Humidade 79%
Pressão 1010 hPa
Visibilidade 10 km ou mais
Poucas nuvensa uma altura de 2000 ft

METAR: TNCC 272200Z 07008KT 9999 FEW020 28/24 Q1010 NOSIG

Hora: 18:26 (22:26 UTC)

Previsão

O boletim foi feito há 6 horas e 26 minutos, às 16:00 UTC
Previsão válida de 27 às 18 UTC a 28 às 18 UTC
Vento 10 kt de este
Visibilidade 10 km ou mais
Poucas nuvensa uma altura de 2500 ft

TAF: TNCC 271600Z 2718/2818 09010KT 9999 FEW025

Observações e previsões do tempo de mais de 4000 aeroportos (mensagens METAR e TAF).

As estações disponíveis são os pontos amarelos e vermelhos sobre o mapa.

Mova o rato sobre o mapa para ver o nome da estação.

Depois clique no ponto para visualizar as observações e previsões meteorológicas.

Para alterar o mapa : clique nos botões verdes com uma cruz preta para aumentar o zoom; no botão verde com uma pitada de zoom; ou nas setas verdes para mapas adjacentes.


METAR-TAF: